East Cabot, Vermont
Current Conditions -  °F | °C
As of 2:35 AM on Saturday 29 Nov 2014 (Local Time) from KCDA Reporting Station
Clear Clear  
Wind Chill: 13°   Ceiling: Unl
Heat Index: 13°   Visibility: 10mi
Dew Point:   Wind: 0mph
Humidity: 84%   Direction: NA
Pressure: 30.18"   Gusts: NA
Location:  44.4018°N, 72.2973°W
Report Text: KCDA 290735Z AUTO 00000KT 10SM CLR M10/M13 A3018 RMK AO2 T11051127
Loading
Personal Weather Stations






























Interactive Weather Map New forecast layout! Learn more

10-Day Weather Forecast

Advertisements
Track Severe Weather on mobile